createdAt,value
2019-01-30T00:00:34.496Z,6.40
2019-01-30T00:01:40.045Z,6.05
2019-01-30T00:02:45.010Z,7.42
2019-01-30T00:03:50.255Z,7.20
2019-01-30T00:04:55.207Z,6.47
2019-01-30T00:06:00.203Z,6.12
2019-01-30T00:07:05.965Z,5.97
2019-01-30T00:08:11.025Z,5.80
2019-01-30T00:09:16.338Z,5.80
2019-01-30T00:10:21.239Z,6.60
2019-01-30T00:11:26.240Z,6.78
2019-01-30T00:12:31.198Z,8.98
2019-01-30T00:13:36.503Z,6.20
2019-01-30T00:14:41.710Z,6.35
2019-01-30T00:15:56.098Z,7.00
2019-01-30T00:16:53.715Z,5.95
2019-01-30T00:17:58.692Z,6.55
2019-01-30T00:19:03.741Z,6.70
2019-01-30T00:20:09.449Z,6.83
2019-01-30T00:21:14.437Z,6.60
2019-01-30T00:22:20.447Z,6.53
2019-01-30T00:23:25.356Z,6.80
2019-01-30T00:24:30.874Z,6.17
2019-01-30T00:25:35.860Z,6.72
2019-01-30T00:26:40.730Z,7.75
2019-01-30T00:27:46.047Z,6.72
2019-01-30T00:28:51.347Z,6.85
2019-01-30T00:30:03.813Z,7.12
2019-01-30T00:31:03.000Z,5.95
2019-01-30T00:32:07.975Z,6.42
2019-01-30T00:33:12.992Z,6.25
2019-01-30T00:34:17.971Z,6.75
2019-01-30T00:35:23.494Z,5.92
2019-01-30T00:36:29.077Z,7.00
2019-01-30T00:37:33.963Z,6.37
2019-01-30T00:38:38.961Z,6.72
2019-01-30T00:39:43.852Z,6.37
2019-01-30T00:40:48.772Z,6.72
2019-01-30T00:41:53.682Z,6.10
2019-01-30T00:42:59.271Z,6.67
2019-01-30T00:44:04.463Z,7.45
2019-01-30T00:45:11.674Z,6.10
2019-01-30T00:46:19.459Z,6.83
2019-01-30T00:47:24.387Z,6.30
2019-01-30T00:48:29.615Z,7.08
2019-01-30T00:49:34.590Z,5.85
2019-01-30T00:50:39.552Z,6.37
2019-01-30T00:51:44.450Z,7.17
2019-01-30T00:52:49.509Z,6.45
2019-01-30T00:53:54.398Z,7.25
2019-01-30T00:54:59.633Z,6.40
2019-01-30T00:56:05.117Z,7.20
2019-01-30T00:57:10.285Z,6.55
2019-01-30T00:58:15.253Z,6.80
2019-01-30T00:59:20.230Z,5.90
2019-01-30T01:00:25.840Z,5.60
2019-01-30T01:01:30.801Z,7.65
2019-01-30T01:02:35.799Z,6.45
2019-01-30T01:03:40.860Z,6.33
2019-01-30T01:04:45.905Z,6.20
2019-01-30T01:05:51.372Z,7.50
2019-01-30T01:06:56.650Z,7.10
2019-01-30T01:08:01.696Z,5.70
2019-01-30T01:09:10.438Z,6.95
2019-01-30T01:10:16.493Z,6.53
2019-01-30T01:11:21.488Z,6.97
2019-01-30T01:12:26.435Z,6.58
2019-01-30T01:13:31.749Z,6.12
2019-01-30T01:14:38.335Z,7.10
2019-01-30T01:15:43.577Z,6.53
2019-01-30T01:16:48.831Z,6.80
2019-01-30T01:17:53.741Z,7.78
2019-01-30T01:18:58.744Z,6.60
2019-01-30T01:20:04.412Z,7.00
2019-01-30T01:21:09.912Z,6.40
2019-01-30T01:22:14.950Z,6.75
2019-01-30T01:23:20.943Z,6.90
2019-01-30T01:24:26.189Z,6.12
2019-01-30T01:25:31.146Z,6.65
2019-01-30T01:26:36.140Z,6.25
2019-01-30T01:27:41.656Z,6.22
2019-01-30T01:28:46.614Z,6.20
2019-01-30T01:29:51.662Z,6.40
2019-01-30T01:30:56.737Z,7.70
2019-01-30T01:32:01.828Z,7.00
2019-01-30T01:33:06.772Z,6.20
2019-01-30T01:34:11.964Z,5.90
2019-01-30T01:35:17.121Z,6.72
2019-01-30T01:36:22.079Z,7.03
2019-01-30T01:37:27.305Z,6.95
2019-01-30T01:38:32.218Z,6.60
2019-01-30T01:39:37.374Z,6.40
2019-01-30T01:40:42.966Z,5.40
2019-01-30T01:41:47.877Z,6.67
2019-01-30T01:42:52.860Z,6.15
2019-01-30T01:43:57.769Z,7.25
2019-01-30T01:45:02.735Z,7.00
2019-01-30T01:46:07.718Z,6.75
2019-01-30T01:47:13.001Z,5.80
2019-01-30T01:48:18.058Z,6.53
2019-01-30T01:49:23.345Z,6.65
2019-01-30T01:50:28.906Z,6.20
2019-01-30T01:51:33.874Z,7.80
2019-01-30T01:52:39.255Z,6.65
2019-01-30T01:53:44.498Z,6.47
2019-01-30T01:54:49.481Z,6.35
2019-01-30T01:55:54.453Z,6.10
2019-01-30T01:56:59.364Z,5.90
2019-01-30T01:58:04.452Z,6.30
2019-01-30T01:59:09.581Z,6.20
2019-01-30T02:00:17.331Z,5.53
2019-01-30T02:01:22.503Z,6.17
2019-01-30T02:02:27.718Z,6.72
2019-01-30T02:03:32.800Z,6.70
2019-01-30T02:04:38.026Z,6.03
2019-01-30T02:05:43.047Z,6.20
2019-01-30T02:06:48.283Z,6.20
2019-01-30T02:07:53.412Z,6.12
2019-01-30T02:08:58.956Z,6.58
2019-01-30T02:10:05.872Z,6.25
2019-01-30T02:11:10.909Z,6.00
2019-01-30T02:12:15.826Z,5.62
2019-01-30T02:13:20.737Z,6.92
2019-01-30T02:14:25.732Z,6.25
2019-01-30T02:15:30.934Z,6.58
2019-01-30T02:16:35.791Z,6.40
2019-01-30T02:17:40.771Z,6.20
2019-01-30T02:18:46.081Z,6.08
2019-01-30T02:19:51.068Z,6.60
2019-01-30T02:20:56.056Z,5.70
2019-01-30T02:22:00.993Z,6.08
2019-01-30T02:23:06.592Z,5.80
2019-01-30T02:24:11.669Z,6.60
2019-01-30T02:25:17.734Z,6.55
2019-01-30T02:26:22.658Z,6.42
2019-01-30T02:27:27.630Z,5.65
2019-01-30T02:28:32.956Z,6.12
2019-01-30T02:29:38.422Z,6.45
2019-01-30T02:30:47.653Z,5.37
2019-01-30T02:31:50.164Z,5.72
2019-01-30T02:32:55.461Z,5.85
2019-01-30T02:34:00.349Z,6.95
2019-01-30T02:35:05.703Z,6.05
2019-01-30T02:36:11.173Z,4.87
2019-01-30T02:37:16.464Z,5.35
2019-01-30T02:38:21.387Z,5.50
2019-01-30T02:39:26.713Z,5.42
2019-01-30T02:40:31.962Z,6.17
2019-01-30T02:41:36.917Z,5.17
2019-01-30T02:42:42.091Z,5.30
2019-01-30T02:43:47.430Z,5.47
2019-01-30T02:44:52.391Z,5.40
2019-01-30T02:45:57.338Z,5.65
2019-01-30T02:47:02.533Z,5.95
2019-01-30T02:48:07.483Z,5.50
2019-01-30T02:49:12.474Z,6.70
2019-01-30T02:50:18.854Z,6.20
2019-01-30T02:51:23.740Z,5.67
2019-01-30T02:52:28.690Z,5.50
2019-01-30T02:53:33.799Z,5.55
2019-01-30T02:54:38.899Z,5.67
2019-01-30T02:55:43.861Z,5.30
2019-01-30T02:56:49.232Z,5.00
2019-01-30T02:57:54.502Z,6.28
2019-01-30T02:58:59.426Z,5.62
2019-01-30T03:00:06.053Z,5.25
2019-01-30T03:01:10.971Z,6.17
2019-01-30T03:02:22.466Z,5.05
2019-01-30T03:03:27.749Z,5.67
2019-01-30T03:04:32.986Z,5.67
2019-01-30T03:05:38.015Z,5.62
2019-01-30T03:06:43.355Z,5.45
2019-01-30T03:07:48.417Z,5.50
2019-01-30T03:08:53.332Z,5.58
2019-01-30T03:09:58.248Z,5.60
2019-01-30T03:11:03.296Z,5.65
2019-01-30T03:12:08.540Z,5.53
2019-01-30T03:13:13.568Z,6.05
2019-01-30T03:14:18.794Z,5.80
2019-01-30T03:15:24.474Z,6.08
2019-01-30T03:16:29.949Z,5.85
2019-01-30T03:17:35.137Z,6.28
2019-01-30T03:18:40.362Z,5.35
2019-01-30T03:19:45.586Z,6.55
2019-01-30T03:20:50.585Z,5.80
2019-01-30T03:21:55.602Z,6.47
2019-01-30T03:23:00.813Z,7.00
2019-01-30T03:24:05.978Z,5.53
2019-01-30T03:25:12.195Z,5.67
2019-01-30T03:26:17.429Z,6.22
2019-01-30T03:27:23.760Z,6.17
2019-01-30T03:28:28.640Z,5.65
2019-01-30T03:29:33.854Z,6.60
2019-01-30T03:30:38.897Z,5.53
2019-01-30T03:31:43.882Z,5.53
2019-01-30T03:32:49.279Z,6.05
2019-01-30T03:33:54.608Z,5.92
2019-01-30T03:34:59.502Z,6.00
2019-01-30T03:36:04.735Z,6.58
2019-01-30T03:37:09.723Z,6.05
2019-01-30T03:38:14.714Z,5.53
2019-01-30T03:39:19.623Z,6.65
2019-01-30T03:40:28.034Z,5.90
2019-01-30T03:41:33.056Z,5.90
2019-01-30T03:42:38.296Z,6.25
2019-01-30T03:43:43.199Z,6.15
2019-01-30T03:44:48.135Z,5.67
2019-01-30T03:45:53.418Z,5.92
2019-01-30T03:46:58.419Z,5.65
2019-01-30T03:48:03.399Z,6.00
2019-01-30T03:49:08.306Z,5.03
2019-01-30T03:50:13.519Z,5.42
2019-01-30T03:51:18.707Z,5.95
2019-01-30T03:52:23.654Z,5.75
2019-01-30T03:53:28.563Z,6.25
2019-01-30T03:54:33.535Z,5.92
2019-01-30T03:55:38.638Z,5.62
2019-01-30T03:56:43.585Z,5.80
2019-01-30T03:57:48.618Z,5.70
2019-01-30T03:58:53.702Z,5.30
2019-01-30T03:59:59.134Z,5.40
2019-01-30T04:01:04.308Z,5.95
2019-01-30T04:02:09.349Z,6.15
2019-01-30T04:03:14.329Z,6.33
2019-01-30T04:04:19.488Z,5.28
2019-01-30T04:05:25.161Z,5.92
2019-01-30T04:06:30.065Z,5.83
2019-01-30T04:07:35.054Z,6.40
2019-01-30T04:08:40.107Z,5.22
2019-01-30T04:09:45.004Z,5.90
2019-01-30T04:10:49.906Z,5.70
2019-01-30T04:11:55.022Z,6.30
2019-01-30T04:13:00.356Z,6.25
2019-01-30T04:14:05.552Z,5.83
2019-01-30T04:15:10.661Z,5.78
2019-01-30T04:16:15.650Z,4.67
2019-01-30T04:17:20.628Z,6.83
2019-01-30T04:18:25.537Z,5.33
2019-01-30T04:19:30.459Z,5.72
2019-01-30T04:20:35.466Z,5.50
2019-01-30T04:21:40.775Z,5.90
2019-01-30T04:22:46.124Z,5.70
2019-01-30T04:23:51.061Z,5.10
2019-01-30T04:24:55.956Z,6.37
2019-01-30T04:26:00.897Z,6.17
2019-01-30T04:27:06.160Z,6.10
2019-01-30T04:28:11.551Z,6.00
2019-01-30T04:29:16.539Z,5.80
2019-01-30T04:30:23.592Z,4.92
2019-01-30T04:31:37.934Z,5.50
2019-01-30T04:32:35.393Z,5.05
2019-01-30T04:33:40.278Z,5.10
2019-01-30T04:34:45.240Z,4.95
2019-01-30T04:35:50.753Z,5.53
2019-01-30T04:36:55.655Z,5.62
2019-01-30T04:38:01.246Z,5.95
2019-01-30T04:39:07.926Z,5.53
2019-01-30T04:40:15.246Z,5.53
2019-01-30T04:41:20.287Z,5.70
2019-01-30T04:42:34.382Z,5.30
2019-01-30T04:43:39.332Z,5.03
2019-01-30T04:44:44.232Z,6.20
2019-01-30T04:45:49.262Z,5.60
2019-01-30T04:46:54.205Z,5.28
2019-01-30T04:47:59.321Z,5.28
2019-01-30T04:49:04.423Z,4.50
2019-01-30T04:50:09.772Z,5.83
2019-01-30T04:51:15.026Z,4.70
2019-01-30T04:52:19.963Z,5.95
2019-01-30T04:53:25.158Z,5.90
2019-01-30T04:54:30.195Z,4.95
2019-01-30T04:55:35.118Z,5.15
2019-01-30T04:56:40.085Z,4.92
2019-01-30T04:57:45.522Z,6.12
2019-01-30T04:58:50.729Z,6.00
2019-01-30T04:59:56.096Z,5.60
2019-01-30T05:01:00.999Z,5.67
2019-01-30T05:02:06.420Z,5.42
2019-01-30T05:03:11.368Z,5.33
2019-01-30T05:04:16.451Z,5.50
2019-01-30T05:05:21.627Z,5.05
2019-01-30T05:06:26.601Z,5.15
2019-01-30T05:07:31.551Z,4.40
2019-01-30T05:08:36.460Z,4.83
2019-01-30T05:09:41.450Z,5.08
2019-01-30T05:10:46.563Z,4.97
2019-01-30T05:11:51.456Z,5.10
2019-01-30T05:12:56.778Z,5.47
2019-01-30T05:14:02.368Z,5.80
2019-01-30T05:15:10.189Z,5.33
2019-01-30T05:16:15.480Z,4.58
2019-01-30T05:17:20.439Z,5.40
2019-01-30T05:18:25.372Z,5.10
2019-01-30T05:19:30.752Z,5.17
2019-01-30T05:20:35.869Z,5.50
2019-01-30T05:21:40.998Z,5.78
2019-01-30T05:22:46.033Z,5.15
2019-01-30T05:23:51.209Z,4.85
2019-01-30T05:24:56.428Z,5.50
2019-01-30T05:26:01.394Z,4.67
2019-01-30T05:27:06.507Z,5.10
2019-01-30T05:28:11.464Z,5.65
2019-01-30T05:29:16.489Z,4.53
2019-01-30T05:30:27.172Z,5.92
2019-01-30T05:31:32.187Z,5.85
2019-01-30T05:32:38.189Z,5.25
2019-01-30T05:33:43.091Z,6.03
2019-01-30T05:34:48.497Z,4.78
2019-01-30T05:35:55.921Z,5.80
2019-01-30T05:37:01.278Z,4.83
2019-01-30T05:38:06.336Z,5.25
2019-01-30T05:39:11.479Z,5.35
2019-01-30T05:40:17.367Z,5.00
2019-01-30T05:41:22.215Z,5.30
2019-01-30T05:42:27.408Z,5.33
2019-01-30T05:43:32.324Z,6.22
2019-01-30T05:44:37.271Z,5.08
2019-01-30T05:45:42.264Z,5.83
2019-01-30T05:46:47.180Z,5.35
2019-01-30T05:47:52.589Z,5.35
2019-01-30T05:48:57.953Z,5.45
2019-01-30T05:50:03.253Z,5.20
2019-01-30T05:51:08.644Z,6.20
2019-01-30T05:52:13.929Z,5.30
2019-01-30T05:53:18.829Z,6.45
2019-01-30T05:54:23.759Z,6.35
2019-01-30T05:55:28.722Z,5.60
2019-01-30T05:56:33.939Z,5.75
2019-01-30T05:57:39.215Z,6.12
2019-01-30T05:58:44.737Z,5.70
2019-01-30T05:59:49.695Z,6.30
2019-01-30T06:00:55.053Z,5.50
2019-01-30T06:01:59.965Z,5.75
2019-01-30T06:03:05.120Z,5.95
2019-01-30T06:04:10.188Z,5.72
2019-01-30T06:05:15.770Z,6.12
2019-01-30T06:06:20.759Z,6.60
2019-01-30T06:07:26.340Z,5.45
2019-01-30T06:08:31.215Z,5.37
2019-01-30T06:09:36.414Z,6.28
2019-01-30T06:10:41.530Z,5.17
2019-01-30T06:11:46.786Z,6.05
2019-01-30T06:12:51.750Z,6.47
2019-01-30T06:13:56.735Z,5.97
2019-01-30T06:15:01.687Z,6.15
2019-01-30T06:16:06.797Z,5.65
2019-01-30T06:17:12.128Z,6.12
2019-01-30T06:18:17.139Z,6.10
2019-01-30T06:19:22.248Z,6.33
2019-01-30T06:20:28.298Z,5.00
2019-01-30T06:21:33.227Z,8.73
2019-01-30T06:22:38.550Z,6.65
2019-01-30T06:23:43.425Z,6.35
2019-01-30T06:24:49.360Z,6.87
2019-01-30T06:25:54.410Z,6.60
2019-01-30T06:26:59.429Z,6.30
2019-01-30T06:28:04.807Z,6.70
2019-01-30T06:29:09.788Z,6.10
2019-01-30T06:30:16.398Z,6.03
2019-01-30T06:31:21.384Z,6.92
2019-01-30T06:32:26.712Z,6.47
2019-01-30T06:33:31.674Z,5.90
2019-01-30T06:34:37.714Z,6.33
2019-01-30T06:35:43.029Z,7.40
2019-01-30T06:36:47.941Z,6.70
2019-01-30T06:37:53.318Z,6.65
2019-01-30T06:38:58.610Z,6.22
2019-01-30T06:40:04.003Z,6.40
2019-01-30T06:41:08.916Z,5.53
2019-01-30T06:42:14.150Z,6.83
2019-01-30T06:43:19.161Z,6.40
2019-01-30T06:44:24.480Z,6.85
2019-01-30T06:45:29.651Z,5.87
2019-01-30T06:46:35.021Z,5.83
2019-01-30T06:47:40.095Z,6.25
2019-01-30T06:48:45.100Z,6.22
2019-01-30T06:49:50.613Z,6.42
2019-01-30T06:50:55.907Z,5.75
2019-01-30T06:52:01.434Z,6.78
2019-01-30T06:53:06.977Z,6.20
2019-01-30T06:54:11.879Z,6.55
2019-01-30T06:55:16.871Z,6.15
2019-01-30T06:56:21.779Z,6.50
2019-01-30T06:57:27.074Z,5.97
2019-01-30T06:58:32.124Z,6.75
2019-01-30T06:59:37.021Z,6.00
2019-01-30T07:00:42.242Z,5.83
2019-01-30T07:01:47.292Z,5.78
2019-01-30T07:02:52.961Z,6.67
2019-01-30T07:03:57.940Z,5.85
2019-01-30T07:05:02.880Z,6.72
2019-01-30T07:06:07.986Z,6.22
2019-01-30T07:07:12.890Z,6.30
2019-01-30T07:08:17.874Z,5.67
2019-01-30T07:09:23.212Z,6.95
2019-01-30T07:10:28.905Z,7.67
2019-01-30T07:11:34.613Z,5.33
2019-01-30T07:12:39.691Z,5.72
2019-01-30T07:13:44.792Z,6.67
2019-01-30T07:14:49.768Z,6.70
2019-01-30T07:15:55.139Z,6.45
2019-01-30T07:17:00.096Z,6.47
2019-01-30T07:18:05.575Z,5.95
2019-01-30T07:19:10.579Z,5.60
2019-01-30T07:20:15.902Z,5.55
2019-01-30T07:21:21.002Z,6.25
2019-01-30T07:22:25.955Z,6.33
2019-01-30T07:23:30.973Z,5.33
2019-01-30T07:24:36.075Z,6.67
2019-01-30T07:25:41.282Z,6.65
2019-01-30T07:26:46.277Z,5.25
2019-01-30T07:27:51.457Z,6.78
2019-01-30T07:28:57.067Z,6.78
2019-01-30T07:30:02.021Z,7.17
2019-01-30T07:31:07.152Z,6.85
2019-01-30T07:32:12.042Z,6.85
2019-01-30T07:33:17.040Z,6.95
2019-01-30T07:34:21.969Z,7.65
2019-01-30T07:35:27.413Z,6.55
2019-01-30T07:36:32.500Z,6.05
2019-01-30T07:37:38.506Z,6.08
2019-01-30T07:38:43.593Z,6.12
2019-01-30T07:39:48.587Z,6.70
2019-01-30T07:40:53.588Z,6.55
2019-01-30T07:41:58.796Z,5.90
2019-01-30T07:43:04.351Z,6.05
2019-01-30T07:44:09.276Z,6.60
2019-01-30T07:45:16.050Z,6.05
2019-01-30T07:46:21.284Z,5.92
2019-01-30T07:47:26.358Z,7.25
2019-01-30T07:48:31.794Z,7.62
2019-01-30T07:49:36.892Z,7.00
2019-01-30T07:50:42.177Z,7.20
2019-01-30T07:51:47.165Z,7.05
2019-01-30T07:52:52.520Z,5.85
2019-01-30T07:53:57.419Z,6.78
2019-01-30T07:55:03.389Z,6.53
2019-01-30T07:56:08.917Z,6.55
2019-01-30T07:57:14.000Z,6.50
2019-01-30T07:58:18.935Z,5.92
2019-01-30T07:59:24.345Z,6.75
2019-01-30T08:00:33.610Z,8.20
2019-01-30T08:01:38.943Z,7.53
2019-01-30T08:02:52.917Z,7.45
2019-01-30T08:03:50.804Z,7.60
2019-01-30T08:04:55.709Z,6.87
2019-01-30T08:06:01.040Z,6.80
2019-01-30T08:07:06.489Z,8.30
2019-01-30T08:08:11.977Z,8.20
2019-01-30T08:09:16.876Z,8.23
2019-01-30T08:10:21.950Z,7.12
2019-01-30T08:11:27.061Z,8.05
2019-01-30T08:12:31.953Z,7.55
2019-01-30T08:13:36.944Z,8.65
2019-01-30T08:14:42.094Z,7.90
2019-01-30T08:15:47.146Z,9.35
2019-01-30T08:16:52.132Z,8.28
2019-01-30T08:17:57.376Z,8.43
2019-01-30T08:19:03.190Z,8.43
2019-01-30T08:20:10.667Z,7.45
2019-01-30T08:21:15.759Z,8.88
2019-01-30T08:22:20.644Z,8.20
2019-01-30T08:23:26.319Z,8.20
2019-01-30T08:24:31.806Z,8.15
2019-01-30T08:25:37.295Z,8.03
2019-01-30T08:26:42.673Z,7.70
2019-01-30T08:27:48.479Z,8.25
2019-01-30T08:28:53.794Z,8.30
2019-01-30T08:29:58.738Z,7.87
2019-01-30T08:31:03.793Z,8.25
2019-01-30T08:32:08.883Z,7.65
2019-01-30T08:33:13.722Z,8.90
2019-01-30T08:34:18.703Z,8.53
2019-01-30T08:35:25.422Z,8.90
2019-01-30T08:36:30.495Z,8.18
2019-01-30T08:37:35.521Z,8.65
2019-01-30T08:38:40.560Z,9.05
2019-01-30T08:39:45.990Z,7.78
2019-01-30T08:40:51.013Z,7.45
2019-01-30T08:41:56.466Z,8.30
2019-01-30T08:43:01.631Z,8.65
2019-01-30T08:44:06.695Z,9.05
2019-01-30T08:45:15.815Z,9.55
2019-01-30T08:46:20.809Z,8.58
2019-01-30T08:47:25.878Z,8.40
2019-01-30T08:48:32.236Z,7.78
2019-01-30T08:49:37.143Z,7.72
2019-01-30T08:50:42.238Z,10.68
2019-01-30T08:51:47.290Z,8.80
2019-01-30T08:52:52.616Z,9.48
2019-01-30T08:53:57.665Z,8.20
2019-01-30T08:55:02.644Z,8.48
2019-01-30T08:56:07.676Z,9.45
2019-01-30T08:57:12.713Z,9.78
2019-01-30T08:58:18.367Z,9.23
2019-01-30T08:59:23.363Z,8.33
2019-01-30T09:00:29.226Z,8.98
2019-01-30T09:01:34.268Z,7.97
2019-01-30T09:02:39.630Z,9.30
2019-01-30T09:03:44.788Z,9.08
2019-01-30T09:04:49.901Z,9.30
2019-01-30T09:05:55.064Z,9.13
2019-01-30T09:07:00.071Z,8.80
2019-01-30T09:08:08.932Z,9.25
2019-01-30T09:09:14.351Z,9.35
2019-01-30T09:10:21.361Z,9.63
2019-01-30T09:11:26.743Z,10.35
2019-01-30T09:12:31.838Z,9.65
2019-01-30T09:13:37.107Z,9.55
2019-01-30T09:14:42.091Z,10.63
2019-01-30T09:15:47.408Z,10.38
2019-01-30T09:16:52.670Z,9.65
2019-01-30T09:17:58.301Z,9.90
2019-01-30T09:19:03.653Z,9.23
2019-01-30T09:20:11.807Z,9.33
2019-01-30T09:21:16.808Z,7.22
2019-01-30T09:22:21.831Z,8.63
2019-01-30T09:23:26.887Z,9.48
2019-01-30T09:24:32.033Z,10.48
2019-01-30T09:25:37.105Z,9.48
2019-01-30T09:26:42.267Z,9.70
2019-01-30T09:27:47.518Z,10.23
2019-01-30T09:28:52.881Z,9.23
2019-01-30T09:29:58.731Z,10.10
2019-01-30T09:31:04.125Z,10.10
2019-01-30T09:32:09.301Z,10.00
2019-01-30T09:33:25.552Z,9.18
2019-01-30T09:34:23.214Z,9.80
2019-01-30T09:35:28.553Z,10.53
2019-01-30T09:36:33.596Z,9.60
2019-01-30T09:37:38.670Z,8.80
2019-01-30T09:38:43.711Z,10.00
2019-01-30T09:39:48.747Z,9.38
2019-01-30T09:40:53.717Z,9.75
2019-01-30T09:41:59.673Z,10.23
2019-01-30T09:43:05.321Z,10.00
2019-01-30T09:44:10.346Z,9.93
2019-01-30T09:45:16.358Z,9.58
2019-01-30T09:46:21.252Z,11.60
2019-01-30T09:47:26.165Z,10.10
2019-01-30T09:48:31.182Z,10.13
2019-01-30T09:49:36.442Z,9.98
2019-01-30T09:50:41.806Z,10.72
2019-01-30T09:51:46.981Z,10.90
2019-01-30T09:52:52.739Z,11.40
2019-01-30T09:53:57.874Z,11.45
2019-01-30T09:55:02.964Z,11.78
2019-01-30T09:56:07.928Z,11.10
2019-01-30T09:57:12.889Z,10.53
2019-01-30T09:58:17.915Z,11.43
2019-01-30T09:59:23.084Z,10.50
2019-01-30T10:00:33.362Z,10.80
2019-01-30T10:01:38.334Z,11.40
2019-01-30T10:02:43.626Z,9.78
2019-01-30T10:03:48.634Z,10.05
2019-01-30T10:04:53.654Z,11.43
2019-01-30T10:05:58.865Z,11.53
2019-01-30T10:07:03.895Z,11.05
2019-01-30T10:08:09.587Z,11.25
2019-01-30T10:09:14.871Z,10.75
2019-01-30T10:10:22.821Z,9.95
2019-01-30T10:11:27.826Z,9.93
2019-01-30T10:12:32.920Z,11.05
2019-01-30T10:13:37.839Z,11.55
2019-01-30T10:14:43.222Z,10.93
2019-01-30T10:15:48.611Z,12.37
2019-01-30T10:16:54.383Z,12.28
2019-01-30T10:17:59.376Z,10.20
2019-01-30T10:19:04.761Z,12.20
2019-01-30T10:20:14.124Z,10.20
2019-01-30T10:21:19.863Z,11.10
2019-01-30T10:22:24.793Z,10.35
2019-01-30T10:23:29.707Z,10.72
2019-01-30T10:24:34.772Z,11.40
2019-01-30T10:25:39.893Z,11.22
2019-01-30T10:26:44.904Z,11.10
2019-01-30T10:27:49.847Z,12.82
2019-01-30T10:28:54.841Z,11.90
2019-01-30T10:29:59.752Z,12.45
2019-01-30T10:31:05.114Z,12.40
2019-01-30T10:32:10.505Z,10.55
2019-01-30T10:33:15.873Z,12.58
2019-01-30T10:34:20.797Z,10.78
2019-01-30T10:35:26.413Z,11.30
2019-01-30T10:36:31.740Z,12.30
2019-01-30T10:37:36.728Z,10.30
2019-01-30T10:38:41.673Z,10.72
2019-01-30T10:39:46.943Z,11.83
2019-01-30T10:40:51.993Z,11.22
2019-01-30T10:41:57.370Z,10.15
2019-01-30T10:43:02.748Z,10.95
2019-01-30T10:44:08.825Z,10.75
2019-01-30T10:45:13.965Z,9.98
2019-01-30T10:46:19.160Z,11.57
2019-01-30T10:47:24.170Z,11.22
2019-01-30T10:48:29.590Z,11.63
2019-01-30T10:49:34.514Z,12.50
2019-01-30T10:50:39.578Z,11.05
2019-01-30T10:51:45.005Z,10.30
2019-01-30T10:52:50.442Z,11.38
2019-01-30T10:53:55.588Z,10.72
2019-01-30T10:55:00.601Z,11.57
2019-01-30T10:56:05.744Z,12.20
2019-01-30T10:57:10.832Z,10.82
2019-01-30T10:58:17.740Z,10.23
2019-01-30T10:59:23.015Z,11.33
2019-01-30T11:00:33.898Z,12.68
2019-01-30T11:01:39.221Z,11.38
2019-01-30T11:02:46.463Z,11.05
2019-01-30T11:03:57.087Z,12.10
2019-01-30T11:04:57.706Z,11.10
2019-01-30T11:06:02.712Z,11.50
2019-01-30T11:07:07.953Z,12.37
2019-01-30T11:08:13.026Z,10.80
2019-01-30T11:09:18.207Z,10.38
2019-01-30T11:10:23.418Z,10.38
2019-01-30T11:11:28.705Z,11.35
2019-01-30T11:12:33.682Z,12.53
2019-01-30T11:13:38.706Z,11.45
2019-01-30T11:14:43.723Z,11.15
2019-01-30T11:15:48.678Z,11.50
2019-01-30T11:16:53.642Z,11.18
2019-01-30T11:17:59.629Z,12.58
2019-01-30T11:19:05.123Z,12.85
2019-01-30T11:20:11.684Z,10.15
2019-01-30T11:21:16.716Z,12.28
2019-01-30T11:22:21.764Z,11.05
2019-01-30T11:23:27.049Z,11.20
2019-01-30T11:24:32.090Z,11.33
2019-01-30T11:25:38.267Z,11.90
2019-01-30T11:26:43.272Z,12.00
2019-01-30T11:27:48.602Z,11.40
2019-01-30T11:28:53.850Z,12.13
2019-01-30T11:29:58.897Z,11.97
2019-01-30T11:31:04.029Z,11.20
2019-01-30T11:32:08.992Z,11.57
2019-01-30T11:33:14.260Z,12.45
2019-01-30T11:34:19.417Z,11.83
2019-01-30T11:35:24.500Z,12.18
2019-01-30T11:36:29.728Z,13.40
2019-01-30T11:37:34.803Z,12.78
2019-01-30T11:38:40.072Z,11.50
2019-01-30T11:39:45.144Z,12.43
2019-01-30T11:40:50.258Z,15.18
2019-01-30T11:41:55.252Z,13.13
2019-01-30T11:43:00.481Z,13.08
2019-01-30T11:44:07.016Z,14.55
2019-01-30T11:45:17.938Z,13.60
2019-01-30T11:46:24.040Z,12.18
2019-01-30T11:47:28.983Z,12.80
2019-01-30T11:48:34.541Z,13.48
2019-01-30T11:49:39.531Z,13.18
2019-01-30T11:50:44.516Z,13.10
2019-01-30T11:51:49.731Z,13.18
2019-01-30T11:52:54.824Z,12.33
2019-01-30T11:53:59.783Z,14.13
2019-01-30T11:55:06.592Z,15.15
2019-01-30T11:56:11.973Z,12.45
2019-01-30T11:57:17.350Z,13.10
2019-01-30T11:58:22.333Z,13.20
2019-01-30T11:59:27.751Z,12.73
2019-01-30T12:00:46.192Z,13.62
2019-01-30T12:01:51.200Z,13.05
2019-01-30T12:02:56.792Z,13.10
2019-01-30T12:04:01.802Z,14.15
2019-01-30T12:05:09.171Z,14.18
2019-01-30T12:06:14.546Z,14.33
2019-01-30T12:07:19.516Z,13.15
2019-01-30T12:08:24.708Z,16.00
2019-01-30T12:09:29.778Z,14.55
2019-01-30T12:10:35.034Z,14.35
2019-01-30T12:11:40.300Z,12.93
2019-01-30T12:12:45.752Z,14.28
2019-01-30T12:13:50.796Z,13.62
2019-01-30T12:14:55.725Z,12.55
2019-01-30T12:16:00.750Z,13.48
2019-01-30T12:17:05.662Z,14.40
2019-01-30T12:18:11.040Z,14.87
2019-01-30T12:19:16.223Z,12.60
2019-01-30T12:20:21.280Z,12.95
2019-01-30T12:21:26.376Z,11.90
2019-01-30T12:22:31.468Z,13.83
2019-01-30T12:23:36.463Z,13.50
2019-01-30T12:24:41.370Z,13.62
2019-01-30T12:25:46.467Z,14.18
2019-01-30T12:26:51.520Z,13.98
2019-01-30T12:27:56.640Z,13.10
2019-01-30T12:29:01.623Z,13.13
2019-01-30T12:30:11.918Z,14.38
2019-01-30T12:31:17.071Z,14.98
2019-01-30T12:34:10.718Z,13.98
2019-01-30T12:35:16.115Z,13.10
2019-01-30T12:36:21.046Z,13.20
2019-01-30T12:37:26.409Z,14.13
2019-01-30T12:38:32.411Z,15.13
2019-01-30T12:39:37.749Z,14.40
2019-01-30T12:40:43.071Z,15.72
2019-01-30T12:41:48.072Z,14.20
2019-01-30T12:42:53.394Z,15.85
2019-01-30T12:43:58.458Z,15.00
2019-01-30T12:45:03.779Z,15.85
2019-01-30T12:46:08.745Z,13.62
2019-01-30T12:47:20.076Z,15.20
2019-01-30T12:48:21.879Z,14.50
2019-01-30T12:49:27.220Z,14.85
2019-01-30T12:50:32.403Z,16.17
2019-01-30T12:51:37.397Z,14.95
2019-01-30T12:52:42.993Z,14.53
2019-01-30T12:53:47.913Z,14.70
2019-01-30T12:54:53.163Z,15.35
2019-01-30T12:55:58.550Z,15.45
2019-01-30T12:57:03.687Z,14.85
2019-01-30T12:58:08.889Z,14.43
2019-01-30T12:59:13.832Z,13.88
2019-01-30T13:00:21.351Z,16.07
2019-01-30T13:01:26.452Z,14.75
2019-01-30T13:02:31.713Z,14.65
2019-01-30T13:03:37.092Z,15.05
2019-01-30T13:04:42.396Z,15.32
2019-01-30T13:05:47.499Z,16.85
2019-01-30T13:06:52.696Z,17.17
2019-01-30T13:07:58.088Z,14.35
2019-01-30T13:09:03.171Z,16.35
2019-01-30T13:10:09.829Z,14.38
2019-01-30T13:11:14.880Z,15.60
2019-01-30T13:12:19.958Z,16.10
2019-01-30T13:13:25.314Z,16.32
2019-01-30T13:14:30.395Z,16.85
2019-01-30T13:15:35.879Z,16.17
2019-01-30T13:16:40.996Z,17.17
2019-01-30T13:17:46.812Z,16.95
2019-01-30T13:18:52.074Z,14.75
2019-01-30T13:19:57.147Z,15.38
2019-01-30T13:21:02.539Z,16.97
2019-01-30T13:22:07.502Z,15.40
2019-01-30T13:23:12.479Z,17.48
2019-01-30T13:24:17.732Z,17.62
2019-01-30T13:25:28.888Z,17.25
2019-01-30T13:26:34.026Z,15.90
2019-01-30T13:27:39.138Z,15.65
2019-01-30T13:28:44.132Z,18.48
2019-01-30T13:29:49.456Z,17.48
2019-01-30T13:30:54.751Z,17.73
2019-01-30T13:31:59.697Z,18.15
2019-01-30T13:33:06.626Z,16.60
2019-01-30T13:34:11.646Z,19.40
2019-01-30T13:35:16.903Z,27.32
2019-01-30T13:36:21.817Z,28.15
2019-01-30T13:37:27.436Z,22.93
2019-01-30T13:38:32.819Z,16.90
2019-01-30T13:39:37.995Z,17.32
2019-01-30T13:40:43.523Z,17.62
2019-01-30T13:41:48.914Z,17.65
2019-01-30T13:42:54.098Z,17.48
2019-01-30T13:43:59.158Z,16.07
2019-01-30T13:45:05.324Z,16.95
2019-01-30T13:46:10.325Z,17.00
2019-01-30T13:47:15.384Z,17.95
2019-01-30T13:48:21.424Z,18.87
2019-01-30T13:49:27.035Z,18.77
2019-01-30T13:50:33.061Z,19.12
2019-01-30T13:51:38.045Z,18.37
2019-01-30T13:52:43.134Z,18.00
2019-01-30T13:53:48.126Z,18.15
2019-01-30T13:54:53.389Z,17.90
2019-01-30T13:55:59.094Z,18.73
2019-01-30T13:57:04.458Z,18.15
2019-01-30T13:58:09.557Z,17.90
2019-01-30T13:59:14.510Z,18.82
2019-01-30T14:00:22.338Z,19.32
2019-01-30T14:01:27.969Z,17.73
2019-01-30T14:02:33.023Z,18.50
2019-01-30T14:03:38.058Z,20.75
2019-01-30T14:04:42.981Z,20.65
2019-01-30T14:05:48.308Z,21.05
2019-01-30T14:06:53.319Z,19.82
2019-01-30T14:07:58.573Z,21.33
2019-01-30T14:09:05.317Z,21.62
2019-01-30T14:10:10.840Z,20.85
2019-01-30T14:11:15.915Z,20.08
2019-01-30T14:12:21.167Z,21.00
2019-01-30T14:13:26.164Z,23.30
2019-01-30T14:14:31.164Z,21.70
2019-01-30T14:15:36.643Z,20.37
2019-01-30T14:16:41.712Z,22.60
2019-01-30T14:17:46.703Z,24.10
2019-01-30T14:18:51.637Z,21.33
2019-01-30T14:20:53.791Z,21.07
2019-01-30T14:21:59.027Z,19.95
2019-01-30T14:23:04.327Z,21.35